Shaw Island, Washington
Current Conditions -  °F | °C
As of 5:53 AM on Sunday 21 Dec 2014 (Local Time) from KFHR Reporting Station
Broken Clouds Broken Clouds  
Wind Chill: 45°   Ceiling: 11000
Heat Index: 49°   Visibility: 10mi
Dew Point: 43°   Wind: 8mph
Humidity: 80%   Direction: 230°SW
Pressure: 29.75"   Gusts: NA
Location:  48.58°N, 122.93°W
Report Text: KFHR 211353Z AUTO 23007KT 190V300 10SM SCT090 BKN110 09/06 A2975 RMK AO2 SLP074 T00940061
Loading
Personal Weather Stations






























Interactive Weather Map New forecast layout! Learn more

10-Day Weather Forecast

Advertisements
Track Severe Weather on mobile